createdAt,value
2022-09-20T00:01:10.631Z,11.27
2022-09-20T00:03:47.304Z,11.30
2022-09-20T00:06:23.945Z,11.35
2022-09-20T00:08:54.707Z,11.31
2022-09-20T00:11:27.057Z,11.36
2022-09-20T00:14:00.124Z,11.43
2022-09-20T00:16:34.102Z,11.49
2022-09-20T00:19:06.846Z,11.54
2022-09-20T00:21:39.736Z,11.52
2022-09-20T00:24:10.171Z,11.37
2022-09-20T00:26:42.603Z,11.48
2022-09-20T00:29:12.830Z,11.41
2022-09-20T00:31:43.247Z,11.43
2022-09-20T00:34:26.608Z,11.35
2022-09-20T00:36:59.322Z,11.38
2022-09-20T00:39:29.720Z,11.39
2022-09-20T00:41:59.867Z,11.44
2022-09-20T00:44:52.813Z,11.33
2022-09-20T00:47:31.641Z,11.37
2022-09-20T00:50:15.480Z,11.36
2022-09-20T00:52:51.624Z,11.34
2022-09-20T00:55:23.392Z,11.46
2022-09-20T00:57:54.019Z,11.54
2022-09-20T01:00:24.403Z,11.63
2022-09-20T01:03:01.017Z,11.64
2022-09-20T01:05:31.334Z,11.48
2022-09-20T01:08:05.015Z,11.47
2022-09-20T01:10:35.738Z,11.43
2022-09-20T01:13:06.046Z,11.43
2022-09-20T01:15:40.445Z,11.42
2022-09-20T01:18:12.580Z,11.39
2022-09-20T01:20:45.674Z,11.38
2022-09-20T01:23:34.582Z,11.37
2022-09-20T01:26:31.196Z,11.45
2022-09-20T01:29:13.386Z,11.44
2022-09-20T01:31:51.060Z,11.35
2022-09-20T01:34:28.368Z,11.37
2022-09-20T01:37:09.456Z,11.42
2022-09-20T01:39:43.382Z,11.39
2022-09-20T01:42:16.456Z,11.41
2022-09-20T01:45:03.912Z,11.42
2022-09-20T01:47:42.568Z,11.37
2022-09-20T01:50:26.084Z,11.39
2022-09-20T01:53:54.179Z,11.38
2022-09-20T01:57:17.840Z,11.27
2022-09-20T02:00:15.178Z,11.25
2022-09-20T02:03:49.024Z,11.31
2022-09-20T02:06:46.552Z,11.32
2022-09-20T02:10:00.607Z,11.33
2022-09-20T02:12:55.914Z,11.33
2022-09-20T02:15:58.350Z,11.35
2022-09-20T02:18:50.989Z,11.30
2022-09-20T02:21:33.330Z,11.33
2022-09-20T02:24:18.346Z,11.34
2022-09-20T02:27:05.406Z,11.31
2022-09-20T02:29:46.885Z,11.30
2022-09-20T02:32:34.894Z,11.28
2022-09-20T02:35:31.334Z,11.16
2022-09-20T02:38:13.322Z,11.11
2022-09-20T02:41:04.599Z,11.12
2022-09-20T02:43:43.908Z,11.11
2022-09-20T02:46:23.433Z,11.07
2022-09-20T02:49:05.695Z,11.09
2022-09-20T02:51:43.980Z,11.04
2022-09-20T02:54:33.008Z,10.96
2022-09-20T02:57:11.612Z,11.02
2022-09-20T02:59:50.326Z,10.99
2022-09-20T03:02:30.642Z,11.00
2022-09-20T03:05:15.255Z,10.98
2022-09-20T03:08:03.660Z,11.05
2022-09-20T03:10:42.391Z,11.05
2022-09-20T03:13:26.442Z,11.02
2022-09-20T03:16:07.317Z,11.05
2022-09-20T03:18:49.853Z,11.07
2022-09-20T03:21:40.960Z,11.17
2022-09-20T03:24:27.536Z,11.08
2022-09-20T03:27:08.216Z,10.96
2022-09-20T03:29:59.585Z,10.94
2022-09-20T03:32:50.934Z,10.95
2022-09-20T03:35:34.623Z,10.97
2022-09-20T03:38:25.755Z,10.96
2022-09-20T03:41:24.143Z,10.95
2022-09-20T03:44:23.424Z,10.97
2022-09-20T03:47:00.995Z,10.98
2022-09-20T03:50:16.036Z,10.95
2022-09-20T03:53:23.158Z,10.98
2022-09-20T03:56:22.520Z,11.00
2022-09-20T03:59:14.282Z,11.03
2022-09-20T04:02:21.141Z,10.99
2022-09-20T04:04:56.759Z,10.95
2022-09-20T04:07:38.503Z,10.99
2022-09-20T04:10:33.148Z,10.99
2022-09-20T04:13:20.682Z,10.89
2022-09-20T04:16:09.489Z,10.87
2022-09-20T04:18:47.401Z,10.80
2022-09-20T04:21:25.075Z,10.80
2022-09-20T04:24:03.664Z,10.86
2022-09-20T04:26:43.900Z,10.75
2022-09-20T04:29:34.330Z,10.79
2022-09-20T04:32:17.429Z,10.80
2022-09-20T04:35:04.467Z,10.78
2022-09-20T04:37:38.579Z,10.72
2022-09-20T04:40:21.781Z,10.73
2022-09-20T04:44:11.835Z,10.70
2022-09-20T04:47:28.733Z,10.76
2022-09-20T04:50:47.856Z,10.74
2022-09-20T04:53:46.490Z,10.76
2022-09-20T04:56:24.528Z,10.80
2022-09-20T04:59:25.207Z,10.81
2022-09-20T05:02:42.593Z,10.84
2022-09-20T05:05:55.291Z,10.84
2022-09-20T05:09:07.207Z,10.79
2022-09-20T05:12:26.004Z,10.81
2022-09-20T05:15:34.303Z,10.73
2022-09-20T05:18:55.758Z,10.69
2022-09-20T05:21:47.893Z,10.64
2022-09-20T05:24:59.142Z,10.71
2022-09-20T05:27:44.482Z,10.76
2022-09-20T05:30:29.787Z,10.78
2022-09-20T05:33:13.338Z,10.78
2022-09-20T05:35:51.953Z,10.78
2022-09-20T05:38:33.808Z,10.76
2022-09-20T05:41:15.812Z,10.70
2022-09-20T05:43:56.950Z,10.75
2022-09-20T05:46:37.747Z,10.68
2022-09-20T05:49:20.323Z,10.73
2022-09-20T05:52:36.346Z,10.69
2022-09-20T05:55:33.717Z,10.65
2022-09-20T05:58:25.413Z,10.68
2022-09-20T06:01:02.787Z,10.75
2022-09-20T06:03:44.260Z,10.72
2022-09-20T06:06:27.104Z,10.71
2022-09-20T06:09:37.487Z,10.79
2022-09-20T06:12:27.472Z,10.88
2022-09-20T06:15:06.111Z,10.97
2022-09-20T06:17:43.920Z,11.14
2022-09-20T06:20:28.352Z,11.06
2022-09-20T06:23:02.039Z,11.13
2022-09-20T06:25:42.994Z,11.19
2022-09-20T06:28:21.237Z,11.11
2022-09-20T06:30:53.688Z,11.11
2022-09-20T06:33:26.044Z,11.16
2022-09-20T06:36:25.702Z,11.32
2022-09-20T06:39:15.138Z,11.30
2022-09-20T06:41:46.283Z,11.40
2022-09-20T06:44:16.328Z,11.46
2022-09-20T06:46:46.374Z,11.48
2022-09-20T06:49:16.428Z,11.40
2022-09-20T06:51:50.330Z,11.36
2022-09-20T06:54:23.714Z,11.42
2022-09-20T06:56:54.894Z,11.39
2022-09-20T06:59:24.957Z,11.39
2022-09-20T07:01:54.965Z,11.31
2022-09-20T07:04:27.100Z,11.23
2022-09-20T07:07:09.432Z,11.24
2022-09-20T07:09:39.932Z,11.31
2022-09-20T07:12:12.491Z,11.36
2022-09-20T07:14:43.154Z,11.42
2022-09-20T07:17:14.054Z,11.49
2022-09-20T07:19:45.780Z,11.55
2022-09-20T07:22:18.647Z,11.58
2022-09-20T07:24:51.477Z,11.59
2022-09-20T07:27:21.929Z,11.49
2022-09-20T07:29:52.019Z,11.53
2022-09-20T07:32:22.064Z,11.50
2022-09-20T07:34:52.109Z,11.42
2022-09-20T07:37:24.811Z,11.46
2022-09-20T07:39:55.003Z,11.65
2022-09-20T07:42:25.044Z,11.88
2022-09-20T07:44:55.912Z,12.06
2022-09-20T07:47:26.693Z,12.13
2022-09-20T07:49:58.941Z,12.18
2022-09-20T07:52:32.311Z,12.29
2022-09-20T07:55:02.366Z,12.24
2022-09-20T07:57:32.388Z,12.18
2022-09-20T08:00:02.562Z,12.18
2022-09-20T08:02:42.524Z,12.10
2022-09-20T08:05:12.653Z,12.04
2022-09-20T08:07:45.262Z,12.02
2022-09-20T08:10:15.379Z,12.08
2022-09-20T08:15:35.566Z,12.29
2022-09-20T08:18:05.818Z,12.42
2022-09-20T08:20:42.702Z,12.55
2022-09-20T08:23:23.492Z,12.47
2022-09-20T08:25:54.251Z,12.48
2022-09-20T08:28:24.252Z,12.50
2022-09-20T08:30:54.573Z,12.57
2022-09-20T08:33:27.268Z,12.63
2022-09-20T08:35:59.143Z,12.68
2022-09-20T08:41:33.395Z,12.60
2022-09-20T08:44:07.220Z,12.55
2022-09-20T08:46:42.954Z,12.54
2022-09-20T08:49:22.503Z,12.54
2022-09-20T08:51:53.680Z,12.55
2022-09-20T08:54:32.109Z,12.57
2022-09-20T08:57:08.094Z,12.44
2022-09-20T08:59:38.403Z,12.58
2022-09-20T09:02:19.962Z,12.59
2022-09-20T09:04:53.841Z,12.49
2022-09-20T09:07:27.178Z,12.58
2022-09-20T09:10:03.163Z,12.64
2022-09-20T09:12:37.913Z,12.62
2022-09-20T09:15:27.464Z,12.64
2022-09-20T09:17:58.188Z,12.59
2022-09-20T09:20:29.316Z,12.72
2022-09-20T09:23:05.589Z,12.92
2022-09-20T09:25:42.027Z,13.04
2022-09-20T09:28:17.740Z,13.09
2022-09-20T09:30:49.594Z,13.02
2022-09-20T09:33:29.157Z,13.06
2022-09-20T09:36:02.219Z,13.06
2022-09-20T09:38:35.940Z,13.17
2022-09-20T09:41:25.437Z,13.24
2022-09-20T09:44:05.123Z,12.93
2022-09-20T09:46:38.335Z,12.89
2022-09-20T09:49:12.999Z,12.94
2022-09-20T09:51:45.231Z,13.03
2022-09-20T09:54:21.197Z,13.21
2022-09-20T09:57:08.466Z,13.32
2022-09-20T10:00:02.756Z,13.39
2022-09-20T10:03:03.911Z,13.28
2022-09-20T10:05:39.914Z,13.17
2022-09-20T10:08:29.015Z,13.20
2022-09-20T10:11:15.220Z,13.30
2022-09-20T10:14:05.665Z,13.37
2022-09-20T10:17:05.147Z,13.69
2022-09-20T10:19:53.803Z,14.12
2022-09-20T10:22:37.156Z,14.29
2022-09-20T10:25:24.076Z,14.40
2022-09-20T10:28:13.318Z,14.35
2022-09-20T10:30:58.466Z,16.86
2022-09-20T10:33:39.462Z,18.44
2022-09-20T10:36:20.791Z,18.36
2022-09-20T10:39:01.635Z,17.52
2022-09-20T10:42:12.703Z,17.11
2022-09-20T10:45:02.478Z,16.47
2022-09-20T10:47:42.153Z,16.17
2022-09-20T10:50:29.794Z,16.54
2022-09-20T10:53:24.436Z,16.11
2022-09-20T10:56:09.674Z,15.56
2022-09-20T10:59:17.392Z,15.33
2022-09-20T11:02:05.927Z,15.00
2022-09-20T11:05:06.335Z,14.93
2022-09-20T11:07:56.586Z,17.44
2022-09-20T11:10:33.536Z,20.48
2022-09-20T11:13:11.177Z,21.85
2022-09-20T11:15:48.495Z,20.18
2022-09-20T11:18:25.949Z,19.38
2022-09-20T11:21:10.726Z,18.93
2022-09-20T11:23:52.918Z,18.05
2022-09-20T11:26:31.804Z,17.38
2022-09-20T11:29:11.428Z,17.32
2022-09-20T11:31:46.464Z,17.29
2022-09-20T11:34:25.777Z,17.17
2022-09-20T11:37:01.542Z,17.04
2022-09-20T11:39:38.961Z,16.77
2022-09-20T11:42:15.345Z,16.53
2022-09-20T11:44:46.059Z,16.27
2022-09-20T11:47:50.076Z,16.05
2022-09-20T11:51:07.982Z,15.73
2022-09-20T11:54:16.185Z,15.56
2022-09-20T11:56:54.060Z,15.64
2022-09-20T11:59:36.820Z,15.94
2022-09-20T12:02:18.236Z,17.18
2022-09-20T12:04:53.505Z,20.53
2022-09-20T12:07:30.175Z,22.62
2022-09-20T12:10:08.411Z,24.52
2022-09-20T12:12:44.206Z,25.47
2022-09-20T12:15:29.434Z,26.78
2022-09-20T12:18:34.521Z,27.67
2022-09-20T12:21:18.805Z,28.68
2022-09-20T12:24:22.365Z,29.72
2022-09-20T12:26:59.442Z,30.30
2022-09-20T12:30:09.262Z,28.33
2022-09-20T12:33:01.173Z,25.81
2022-09-20T12:36:19.097Z,25.99
2022-09-20T12:39:08.226Z,26.10
2022-09-20T12:41:57.408Z,24.74
2022-09-20T12:44:36.200Z,23.45
2022-09-20T12:47:11.169Z,22.55
2022-09-20T12:50:06.709Z,21.86
2022-09-20T12:52:57.336Z,23.21
2022-09-20T12:55:57.771Z,26.37
2022-09-20T12:58:45.273Z,28.16
2022-09-20T13:01:47.357Z,29.33
2022-09-20T13:04:58.994Z,26.58
2022-09-20T13:07:51.082Z,24.51
2022-09-20T13:10:32.054Z,24.18
2022-09-20T13:13:14.114Z,25.30
2022-09-20T13:15:53.538Z,23.82
2022-09-20T13:18:25.632Z,22.49
2022-09-20T13:21:02.794Z,21.61
2022-09-20T13:23:35.019Z,21.27
2022-09-20T13:26:05.618Z,20.80
2022-09-20T13:28:41.139Z,22.16
2022-09-20T13:31:31.098Z,23.29
2022-09-20T13:34:26.569Z,22.12
2022-09-20T13:37:00.968Z,24.26
2022-09-20T13:39:42.536Z,25.03
2022-09-20T13:42:19.850Z,26.95
2022-09-20T13:44:51.093Z,27.81
2022-09-20T13:47:32.758Z,25.71
2022-09-20T13:50:13.278Z,24.94
2022-09-20T13:52:50.314Z,27.06
2022-09-20T13:55:39.978Z,27.07
2022-09-20T13:58:20.334Z,28.25
2022-09-20T14:00:55.947Z,29.66
2022-09-20T14:03:30.705Z,28.48
2022-09-20T14:06:04.240Z,29.48
2022-09-20T14:08:38.154Z,29.83
2022-09-20T14:11:11.299Z,30.51
2022-09-20T14:13:44.680Z,30.46
2022-09-20T14:16:15.973Z,30.70
2022-09-20T14:18:51.491Z,30.63
2022-09-20T14:21:30.714Z,30.81
2022-09-20T14:24:03.652Z,31.43
2022-09-20T14:26:36.423Z,31.90
2022-09-20T14:29:30.858Z,31.84
2022-09-20T14:32:07.394Z,31.99
2022-09-20T14:34:43.513Z,31.51
2022-09-20T14:37:20.886Z,31.15
2022-09-20T14:39:54.105Z,30.83
2022-09-20T14:42:37.893Z,30.74
2022-09-20T14:45:25.143Z,31.31
2022-09-20T14:48:10.860Z,31.33
2022-09-20T14:50:47.405Z,31.16
2022-09-20T14:53:31.979Z,30.30
2022-09-20T14:56:13.082Z,30.05
2022-09-20T14:59:22.164Z,30.44
2022-09-20T15:02:07.357Z,30.88
2022-09-20T15:04:39.049Z,31.03
2022-09-20T15:07:13.717Z,30.49
2022-09-20T15:09:43.980Z,30.81
2022-09-20T15:12:21.506Z,30.45
2022-09-20T15:14:52.107Z,30.64
2022-09-20T15:17:24.281Z,29.33
2022-09-20T15:19:54.386Z,29.75
2022-09-20T15:22:27.610Z,29.89
2022-09-20T15:24:57.724Z,28.90
2022-09-20T15:27:28.567Z,26.61
2022-09-20T15:30:01.706Z,25.18
2022-09-20T15:32:31.884Z,23.79
2022-09-20T15:35:01.890Z,22.69
2022-09-20T15:37:35.230Z,21.62
2022-09-20T15:40:06.883Z,20.97
2022-09-20T15:42:41.678Z,20.38
2022-09-20T15:45:16.064Z,19.77
2022-09-20T15:47:47.834Z,19.16
2022-09-20T15:50:18.447Z,18.57
2022-09-20T15:52:51.511Z,18.24
2022-09-20T15:55:22.671Z,17.92
2022-09-20T15:57:58.083Z,17.65
2022-09-20T16:00:28.166Z,17.40
2022-09-20T16:02:58.468Z,17.17
2022-09-20T16:05:28.705Z,16.98
2022-09-20T16:08:01.508Z,16.81
2022-09-20T16:10:32.808Z,16.62
2022-09-20T16:13:04.129Z,16.45
2022-09-20T16:15:34.387Z,16.28
2022-09-20T16:18:19.776Z,16.14
2022-09-20T16:20:49.950Z,15.93
2022-09-20T16:23:26.006Z,15.80
2022-09-20T16:25:58.103Z,15.65
2022-09-20T16:28:30.797Z,15.49
2022-09-20T16:31:01.149Z,15.45
2022-09-20T16:33:33.087Z,15.37
2022-09-20T16:36:03.344Z,15.28
2022-09-20T16:38:39.005Z,15.20
2022-09-20T16:41:09.122Z,15.10
2022-09-20T16:43:39.530Z,14.96
2022-09-20T16:46:10.511Z,14.87
2022-09-20T16:48:40.910Z,14.75
2022-09-20T16:51:11.052Z,14.64
2022-09-20T16:53:43.769Z,14.56
2022-09-20T16:56:21.681Z,14.46
2022-09-20T16:58:52.272Z,14.38
2022-09-20T17:01:23.215Z,14.23
2022-09-20T17:03:53.106Z,14.15
2022-09-20T17:06:23.654Z,14.10
2022-09-20T17:08:59.306Z,14.07
2022-09-20T17:11:32.291Z,13.95
2022-09-20T17:14:02.718Z,13.90
2022-09-20T17:16:36.775Z,13.85
2022-09-20T17:19:09.784Z,13.79
2022-09-20T17:21:43.496Z,13.74
2022-09-20T17:24:16.602Z,13.67
2022-09-20T17:26:49.035Z,13.61
2022-09-20T17:29:21.111Z,13.53
2022-09-20T17:31:59.620Z,13.51
2022-09-20T17:34:31.943Z,13.48
2022-09-20T17:37:03.566Z,13.46
2022-09-20T17:39:36.626Z,13.45
2022-09-20T17:42:07.301Z,13.43
2022-09-20T17:44:38.128Z,13.42
2022-09-20T17:47:13.357Z,13.38
2022-09-20T17:49:45.184Z,13.37
2022-09-20T17:52:16.416Z,13.40
2022-09-20T17:54:49.326Z,13.29
2022-09-20T17:57:19.976Z,13.23
2022-09-20T17:59:50.281Z,13.17
2022-09-20T18:02:20.727Z,12.90
2022-09-20T18:04:53.555Z,12.68
2022-09-20T18:07:26.746Z,12.58
2022-09-20T18:09:59.432Z,12.62
2022-09-20T18:12:29.767Z,12.74
2022-09-20T18:14:59.963Z,12.70
2022-09-20T18:17:30.260Z,12.67
2022-09-20T18:20:00.319Z,12.50
2022-09-20T18:22:30.490Z,12.45
2022-09-20T18:25:03.468Z,12.51
2022-09-20T18:27:34.172Z,12.41
2022-09-20T18:30:06.773Z,12.38
2022-09-20T18:32:37.120Z,12.45
2022-09-20T18:35:09.629Z,12.36
2022-09-20T18:37:39.807Z,12.35
2022-09-20T18:40:16.022Z,12.30
2022-09-20T18:42:46.118Z,12.28
2022-09-20T18:45:20.193Z,12.31
2022-09-20T18:47:51.826Z,12.41
2022-09-20T18:50:22.173Z,12.44
2022-09-20T18:52:52.934Z,12.46
2022-09-20T18:55:26.480Z,12.50
2022-09-20T18:58:01.349Z,12.47
2022-09-20T19:00:32.893Z,12.47
2022-09-20T19:03:10.425Z,12.41
2022-09-20T19:05:46.595Z,12.41
2022-09-20T19:08:34.285Z,12.43
2022-09-20T19:11:14.969Z,12.44
2022-09-20T19:13:53.409Z,12.47
2022-09-20T19:16:27.060Z,12.49
2022-09-20T19:19:26.769Z,12.46
2022-09-20T19:22:17.309Z,12.47
2022-09-20T19:25:07.059Z,12.48
2022-09-20T19:27:42.340Z,12.50
2022-09-20T19:30:17.515Z,12.42
2022-09-20T19:32:48.631Z,12.38
2022-09-20T19:35:25.260Z,12.33
2022-09-20T19:38:15.536Z,12.31
2022-09-20T19:40:54.865Z,12.26
2022-09-20T19:43:47.739Z,12.22
2022-09-20T19:46:37.858Z,12.27
2022-09-20T19:49:17.181Z,12.26
2022-09-20T19:51:48.482Z,12.27
2022-09-20T19:54:21.428Z,12.27
2022-09-20T19:56:59.510Z,12.30
2022-09-20T19:59:33.558Z,12.31
2022-09-20T20:02:08.064Z,12.37
2022-09-20T20:04:39.177Z,12.42
2022-09-20T20:07:16.664Z,12.42
2022-09-20T20:09:54.936Z,12.40
2022-09-20T20:12:34.087Z,12.49
2022-09-20T20:15:22.566Z,12.47
2022-09-20T20:18:01.857Z,12.48
2022-09-20T20:20:38.567Z,12.48
2022-09-20T20:23:46.378Z,12.51
2022-09-20T20:26:23.488Z,12.53
2022-09-20T20:28:54.948Z,12.53
2022-09-20T20:31:28.685Z,12.50
2022-09-20T20:33:59.202Z,12.53
2022-09-20T20:36:29.453Z,12.49
2022-09-20T20:38:59.668Z,12.50
2022-09-20T20:41:31.942Z,12.48
2022-09-20T20:44:06.021Z,12.51
2022-09-20T20:46:41.521Z,12.52
2022-09-20T20:49:11.832Z,12.48
2022-09-20T20:51:41.990Z,12.54
2022-09-20T20:54:12.980Z,12.57
2022-09-20T20:56:43.064Z,12.55
2022-09-20T20:59:15.953Z,12.56
2022-09-20T21:01:49.369Z,12.59
2022-09-20T21:04:20.427Z,12.59
2022-09-20T21:06:50.932Z,12.56
2022-09-20T21:09:20.990Z,12.57
2022-09-20T21:11:53.980Z,12.54
2022-09-20T21:14:26.478Z,12.48
2022-09-20T21:16:59.321Z,12.35
2022-09-20T21:19:29.767Z,12.25
2022-09-20T21:21:59.916Z,12.36
2022-09-20T21:24:30.062Z,12.40
2022-09-20T21:27:00.082Z,12.36
2022-09-20T21:29:32.745Z,12.40
2022-09-20T21:32:07.227Z,12.43
2022-09-20T21:34:37.404Z,12.45
2022-09-20T21:37:07.722Z,12.39
2022-09-20T21:39:37.930Z,12.30
2022-09-20T21:42:08.916Z,12.13
2022-09-20T21:44:43.214Z,12.11
2022-09-20T21:47:20.824Z,12.03
2022-09-20T21:49:50.994Z,12.01
2022-09-20T21:52:21.121Z,12.01
2022-09-20T21:54:52.095Z,11.98
2022-09-20T21:57:21.909Z,11.94
2022-09-20T21:59:52.289Z,12.02
2022-09-20T22:02:27.356Z,11.98
2022-09-20T22:05:01.290Z,11.92
2022-09-20T22:07:33.398Z,12.00
2022-09-20T22:10:07.436Z,12.07
2022-09-20T22:12:39.290Z,12.07
2022-09-20T22:15:11.872Z,12.10
2022-09-20T22:17:46.033Z,12.13
2022-09-20T22:20:16.575Z,12.22
2022-09-20T22:22:49.591Z,12.22
2022-09-20T22:25:21.034Z,12.22
2022-09-20T22:27:55.213Z,12.26
2022-09-20T22:30:27.337Z,12.14
2022-09-20T22:33:00.053Z,12.09
2022-09-20T22:35:33.501Z,11.98
2022-09-20T22:38:10.090Z,12.03
2022-09-20T22:40:40.248Z,12.01
2022-09-20T22:43:10.290Z,12.02
2022-09-20T22:45:40.348Z,12.08
2022-09-20T22:48:12.998Z,12.10
2022-09-20T22:50:51.205Z,12.18
2022-09-20T22:53:21.427Z,12.24
2022-09-20T22:55:53.083Z,12.24
2022-09-20T22:58:25.766Z,12.22
2022-09-20T23:00:57.624Z,12.25
2022-09-20T23:03:30.606Z,12.29
2022-09-20T23:06:00.839Z,12.29
2022-09-20T23:08:32.083Z,12.31
2022-09-20T23:11:08.065Z,12.32
2022-09-20T23:13:43.893Z,12.27
2022-09-20T23:16:17.254Z,12.21
2022-09-20T23:18:52.465Z,12.07
2022-09-20T23:21:25.583Z,11.93
2022-09-20T23:23:57.675Z,11.68
2022-09-20T23:26:39.630Z,11.49
2022-09-20T23:29:15.900Z,11.44
2022-09-20T23:32:02.084Z,11.29
2022-09-20T23:34:40.571Z,11.19
2022-09-20T23:37:11.002Z,11.19
2022-09-20T23:39:41.491Z,11.30
2022-09-20T23:42:17.139Z,11.46
2022-09-20T23:44:50.336Z,11.56
2022-09-20T23:47:20.483Z,11.53
2022-09-20T23:49:54.424Z,11.47
2022-09-20T23:52:28.145Z,11.37
2022-09-20T23:54:58.225Z,11.32
2022-09-20T23:57:34.609Z,11.23
